Strona główna
METAR-TAF:

METAR-TAF

Lotnisko :

Taubaté, São Paulo, Brazylia

Szerokość geograficzna: 23-02-26S, Długość geograficzna: 45-31-00W, wysokość: 577 m

Aktualna obserwacja pogody

Raport powstał 2 godziny i 55 minut temu, godzina 03:00 UTC
Wiatr 4 kt od zachodnio-południowy zachód
Temperatura 10°C
Wilgotność 93%
Ciśnienie 1021 hPa
Widzialność 10 km lub więcej
Brak chmur poniżej 1500 m i brak chmur cumulonimbus

METAR: SBTA 280300Z 24004KT CAVOK 10/09 Q1021

czas: 02:55 (05:55 UTC)


TAF: brakujący

Obserwacja i prognoza pogody dla ponad 4000 lotnisk (raport METAR i TAF).

Dostępne stacje oznaczono żółtymi i czerwonymi punktami na mapie.

Najedź kursorem aby zobaczyć nazwę stacji.

Kliknij aby zobaczyć obserwacje i prognozy pogody.

Aby zmienić mapę: kliknij na zielony przycisk z czarnym krzyżykiem, aby powiększyć; na zielony przycisk z myślnikiem, aby pomniejszyć; na zielone strzałki, aby przejść do map sąsiednich.


METAR-TAF: